createdAt,value
2022-08-17T00:02:26.650Z,97935.59
2022-08-17T00:04:55.135Z,97928.69
2022-08-17T00:07:22.419Z,97935.44
2022-08-17T00:09:49.002Z,97928.50
2022-08-17T00:12:42.177Z,97933.25
2022-08-17T00:15:04.948Z,97928.84
2022-08-17T00:17:31.552Z,97927.00
2022-08-17T00:19:58.125Z,97927.53
2022-08-17T00:22:32.279Z,97930.84
2022-08-17T00:25:02.230Z,97929.19
2022-08-17T00:27:28.818Z,97930.50
2022-08-17T00:29:55.409Z,97925.63
2022-08-17T00:33:14.626Z,97936.72
2022-08-17T00:35:11.171Z,97924.09
2022-08-17T00:37:37.853Z,97928.31
2022-08-17T00:40:05.282Z,97921.59
2022-08-17T00:42:33.672Z,97921.00
2022-08-17T00:45:00.332Z,97927.63
2022-08-17T00:47:26.928Z,97928.13
2022-08-17T00:49:54.024Z,97926.16
2022-08-17T00:52:24.920Z,97929.00
2022-08-17T00:54:54.059Z,97927.47
2022-08-17T00:57:30.087Z,97927.13
2022-08-17T01:00:02.259Z,97935.16
2022-08-17T01:02:41.206Z,97931.78
2022-08-17T01:05:23.737Z,97933.78
2022-08-17T01:07:52.747Z,97937.50
2022-08-17T01:11:00.533Z,97933.78
2022-08-17T01:13:15.245Z,97934.31
2022-08-17T01:15:48.520Z,97933.94
2022-08-17T01:18:15.956Z,97943.41
2022-08-17T01:20:49.001Z,97941.72
2022-08-17T01:23:19.871Z,97934.97
2022-08-17T01:25:52.358Z,97943.41
2022-08-17T01:28:53.029Z,97910.50
2022-08-17T01:31:08.498Z,97940.44
2022-08-17T01:33:36.133Z,97940.25
2022-08-17T01:36:04.318Z,97941.78
2022-08-17T01:38:31.976Z,97942.31
2022-08-17T01:41:07.518Z,97948.75
2022-08-17T01:43:49.293Z,97944.25
2022-08-17T01:46:21.923Z,97931.25
2022-08-17T01:48:48.751Z,97951.19
2022-08-17T01:51:16.051Z,97947.66
2022-08-17T01:53:47.509Z,97943.59
2022-08-17T01:56:18.271Z,97952.50
2022-08-17T01:58:45.708Z,97934.28
2022-08-17T02:01:14.752Z,97946.91
2022-08-17T02:03:42.058Z,97947.59
2022-08-17T02:06:27.621Z,97952.66
2022-08-17T02:09:02.755Z,97936.78
2022-08-17T02:11:33.255Z,97934.03
2022-08-17T02:14:03.696Z,97948.78
2022-08-17T02:16:37.047Z,97944.78
2022-08-17T02:19:07.179Z,97939.78
2022-08-17T02:21:34.088Z,97949.09
2022-08-17T02:24:00.783Z,97936.31
2022-08-17T02:26:27.471Z,97939.72
2022-08-17T02:28:54.336Z,97943.31
2022-08-17T02:31:21.365Z,97936.13
2022-08-17T02:33:56.564Z,97939.50
2022-08-17T02:36:31.317Z,97943.50
2022-08-17T02:38:58.743Z,97942.50
2022-08-17T02:41:25.545Z,97941.78
2022-08-17T02:43:53.205Z,97946.56
2022-08-17T02:46:19.802Z,97944.88
2022-08-17T02:48:46.548Z,97941.31
2022-08-17T02:51:13.163Z,97944.00
2022-08-17T02:53:39.741Z,97942.66
2022-08-17T02:56:06.682Z,97940.59
2022-08-17T02:58:34.920Z,97935.22
2022-08-17T03:01:06.690Z,97924.75
2022-08-17T03:03:34.754Z,97943.72
2022-08-17T03:06:02.253Z,97943.47
2022-08-17T03:08:30.260Z,97943.13
2022-08-17T03:10:57.269Z,97938.25
2022-08-17T03:13:24.190Z,97954.09
2022-08-17T03:15:50.963Z,97954.25
2022-08-17T03:18:24.730Z,97947.47
2022-08-17T03:20:54.850Z,97956.00
2022-08-17T03:23:24.201Z,97952.19
2022-08-17T03:25:53.760Z,97947.63
2022-08-17T03:28:21.413Z,97953.31
2022-08-17T03:30:48.162Z,97946.19
2022-08-17T03:33:14.828Z,97955.47
2022-08-17T03:35:42.141Z,97955.44
2022-08-17T03:38:10.734Z,97949.88
2022-08-17T03:40:57.892Z,97951.72
2022-08-17T03:43:25.590Z,97944.91
2022-08-17T03:46:27.624Z,97948.13
2022-08-17T03:49:15.727Z,97962.03
2022-08-17T03:52:00.967Z,97956.50
2022-08-17T03:54:46.080Z,97957.47
2022-08-17T03:57:13.308Z,97966.09
2022-08-17T03:59:40.899Z,97966.47
2022-08-17T04:02:15.662Z,97969.72
2022-08-17T04:04:42.724Z,97963.34
2022-08-17T04:07:09.890Z,97969.63
2022-08-17T04:09:36.672Z,97970.66
2022-08-17T04:12:04.984Z,97967.47
2022-08-17T04:14:37.875Z,97964.47
2022-08-17T04:17:20.296Z,97979.41
2022-08-17T04:19:47.051Z,97978.91
2022-08-17T04:22:32.137Z,97965.91
2022-08-17T04:25:07.612Z,97980.97
2022-08-17T04:27:34.308Z,97974.41
2022-08-17T04:30:01.694Z,97979.44
2022-08-17T04:33:05.010Z,97977.78
2022-08-17T04:35:19.073Z,97983.88
2022-08-17T04:37:45.764Z,97984.41
2022-08-17T04:40:31.110Z,97973.63
2022-08-17T04:43:02.861Z,97980.78
2022-08-17T04:45:31.998Z,97983.50
2022-08-17T04:48:00.357Z,97974.91
2022-08-17T04:50:27.633Z,97978.47
2022-08-17T04:52:54.359Z,97986.06
2022-08-17T04:55:21.380Z,97987.13
2022-08-17T04:57:47.992Z,97999.25
2022-08-17T05:00:14.850Z,97999.91
2022-08-17T05:02:50.604Z,97993.19
2022-08-17T05:05:31.170Z,97998.06
2022-08-17T05:08:01.003Z,97993.25
2022-08-17T05:10:31.155Z,98007.06
2022-08-17T05:12:59.830Z,98001.16
2022-08-17T05:15:28.082Z,97996.59
2022-08-17T05:17:55.215Z,98000.63
2022-08-17T05:20:22.786Z,98001.59
2022-08-17T05:22:55.597Z,98000.38
2022-08-17T05:25:28.179Z,98002.66
2022-08-17T05:27:58.985Z,98000.22
2022-08-17T05:30:27.695Z,98001.72
2022-08-17T05:33:04.792Z,97998.28
2022-08-17T05:35:34.027Z,97989.47
2022-08-17T05:38:00.959Z,97999.63
2022-08-17T05:40:28.376Z,97996.44
2022-08-17T05:43:16.538Z,97999.38
2022-08-17T05:46:03.398Z,98002.41
2022-08-17T05:48:40.035Z,98008.59
2022-08-17T05:51:28.333Z,98004.53
2022-08-17T05:54:09.827Z,98007.47
2022-08-17T05:57:20.894Z,98014.22
2022-08-17T05:59:55.778Z,98006.84
2022-08-17T06:02:22.298Z,98009.84
2022-08-17T06:05:09.860Z,98013.47
2022-08-17T06:07:52.565Z,98012.81
2022-08-17T06:10:46.555Z,98014.13
2022-08-17T06:13:30.221Z,98016.59
2022-08-17T06:16:04.632Z,97994.72
2022-08-17T06:19:01.140Z,98004.81
2022-08-17T06:21:33.821Z,97994.84
2022-08-17T06:24:27.515Z,97987.56
2022-08-17T06:26:57.466Z,97987.59
2022-08-17T06:30:02.483Z,97988.28
2022-08-17T06:32:29.622Z,97986.47
2022-08-17T06:35:00.475Z,97975.16
2022-08-17T06:37:32.832Z,97982.50
2022-08-17T06:40:07.440Z,97985.31
2022-08-17T06:43:20.075Z,97987.84
2022-08-17T06:46:17.028Z,97995.53
2022-08-17T06:48:47.258Z,97998.88
2022-08-17T06:52:00.717Z,97994.91
2022-08-17T06:54:38.914Z,97993.47
2022-08-17T06:57:10.481Z,97992.97
2022-08-17T07:00:07.109Z,97991.41
2022-08-17T07:03:02.460Z,97991.72
2022-08-17T07:05:54.446Z,97998.78
2022-08-17T07:08:38.379Z,97988.81
2022-08-17T07:11:14.418Z,97989.72
2022-08-17T07:13:57.462Z,97988.47
2022-08-17T07:17:02.768Z,97995.94
2022-08-17T07:19:33.053Z,97993.81
2022-08-17T07:22:14.264Z,97989.53
2022-08-17T07:24:49.015Z,97989.41
2022-08-17T07:27:27.588Z,97994.28
2022-08-17T07:30:04.697Z,97985.22
2022-08-17T07:32:45.946Z,97994.94
2022-08-17T07:35:37.629Z,97991.63
2022-08-17T07:38:25.748Z,97996.22
2022-08-17T07:41:05.351Z,97994.31
2022-08-17T07:43:40.884Z,97994.97
2022-08-17T07:46:37.916Z,97994.03
2022-08-17T07:49:07.460Z,97983.88
2022-08-17T07:51:39.845Z,97986.78
2022-08-17T07:54:15.508Z,97992.75
2022-08-17T07:56:53.113Z,97982.25
2022-08-17T07:59:33.460Z,97995.56
2022-08-17T08:02:05.983Z,97996.28
2022-08-17T08:05:02.106Z,97996.41
2022-08-17T08:07:38.319Z,97991.41
2022-08-17T08:10:13.126Z,97994.97
2022-08-17T08:12:48.022Z,97990.16
2022-08-17T08:15:26.119Z,97996.22
2022-08-17T08:17:56.463Z,97988.56
2022-08-17T08:20:51.660Z,97993.19
2022-08-17T08:23:42.962Z,97992.81
2022-08-17T08:26:28.354Z,97992.16
2022-08-17T08:29:11.355Z,97985.25
2022-08-17T08:31:57.654Z,97985.31
2022-08-17T08:34:58.909Z,97987.59
2022-08-17T08:37:37.863Z,97987.94
2022-08-17T08:40:34.889Z,97999.84
2022-08-17T08:43:16.436Z,97997.47
2022-08-17T08:46:01.720Z,97986.41
2022-08-17T08:48:56.895Z,97983.69
2022-08-17T08:51:20.181Z,97980.47
2022-08-17T08:53:58.520Z,97975.53
2022-08-17T08:56:35.665Z,97980.75
2022-08-17T08:59:17.248Z,97977.31
2022-08-17T09:02:03.528Z,97978.81
2022-08-17T09:05:12.749Z,97979.72
2022-08-17T09:08:05.711Z,97978.75
2022-08-17T09:10:49.653Z,97988.88
2022-08-17T09:13:46.359Z,97983.16
2022-08-17T09:16:30.731Z,97985.69
2022-08-17T09:19:05.006Z,97987.13
2022-08-17T09:21:48.446Z,97982.84
2022-08-17T09:24:43.728Z,97995.22
2022-08-17T09:27:20.718Z,97989.59
2022-08-17T09:29:57.890Z,97992.25
2022-08-17T09:32:49.905Z,97988.84
2022-08-17T09:35:19.839Z,97987.59
2022-08-17T09:38:01.671Z,97997.75
2022-08-17T09:40:43.434Z,97983.53
2022-08-17T09:43:16.666Z,97984.25
2022-08-17T09:45:52.045Z,97977.41
2022-08-17T09:48:24.500Z,97974.09
2022-08-17T09:51:30.326Z,97976.69
2022-08-17T09:54:14.722Z,97976.25
2022-08-17T09:57:28.422Z,97954.59
2022-08-17T10:00:16.724Z,97970.38
2022-08-17T10:02:55.665Z,97981.16
2022-08-17T10:05:46.552Z,97981.31
2022-08-17T10:08:25.753Z,97987.91
2022-08-17T10:11:05.513Z,97982.84
2022-08-17T10:13:41.285Z,97987.59
2022-08-17T10:16:30.426Z,97981.47
2022-08-17T10:19:05.315Z,97983.06
2022-08-17T10:22:01.050Z,97981.16
2022-08-17T10:25:22.115Z,97984.66
2022-08-17T10:27:52.959Z,97980.50
2022-08-17T10:30:23.668Z,97976.72
2022-08-17T10:32:55.326Z,97966.28
2022-08-17T10:35:30.172Z,97969.06
2022-08-17T10:37:56.702Z,97976.97
2022-08-17T10:40:31.075Z,97975.66
2022-08-17T10:43:22.786Z,97984.59
2022-08-17T10:46:30.877Z,97980.75
2022-08-17T10:49:18.515Z,97977.75
2022-08-17T10:51:48.204Z,97972.19
2022-08-17T10:54:39.352Z,97979.94
2022-08-17T10:57:33.913Z,97980.84
2022-08-17T11:00:01.662Z,97970.22
2022-08-17T11:02:50.028Z,97972.47
2022-08-17T11:05:33.041Z,97979.03
2022-08-17T11:08:24.471Z,97972.78
2022-08-17T11:11:04.952Z,97974.19
2022-08-17T11:14:04.620Z,97964.13
2022-08-17T11:16:50.543Z,97968.41
2022-08-17T11:19:23.239Z,97962.19
2022-08-17T11:21:52.710Z,97962.31
2022-08-17T11:24:44.751Z,97968.50
2022-08-17T11:27:26.649Z,97955.84
2022-08-17T11:30:01.856Z,97958.25
2022-08-17T11:32:37.286Z,97952.41
2022-08-17T11:35:21.458Z,97951.16
2022-08-17T11:38:15.863Z,97949.22
2022-08-17T11:41:10.401Z,97950.94
2022-08-17T11:44:25.360Z,97955.31
2022-08-17T11:47:17.915Z,97948.03
2022-08-17T11:50:28.136Z,97939.25
2022-08-17T11:52:55.089Z,97942.56
2022-08-17T11:55:38.201Z,97935.22
2022-08-17T11:58:26.088Z,97942.56
2022-08-17T12:00:56.578Z,97934.94
2022-08-17T12:03:26.599Z,97937.34
2022-08-17T12:06:04.348Z,97935.28
2022-08-17T12:08:33.910Z,97925.97
2022-08-17T12:11:07.417Z,97932.03
2022-08-17T12:13:44.657Z,97931.03
2022-08-17T12:16:17.558Z,97921.72
2022-08-17T12:18:59.622Z,97931.16
2022-08-17T12:21:51.411Z,97929.47
2022-08-17T12:24:38.280Z,97928.16
2022-08-17T12:27:07.244Z,97918.19
2022-08-17T12:29:38.708Z,97936.75
2022-08-17T12:32:07.132Z,97923.28
2022-08-17T12:34:42.658Z,97911.25
2022-08-17T12:37:20.599Z,97914.44
2022-08-17T12:39:58.784Z,97929.94
2022-08-17T12:42:31.972Z,97918.25
2022-08-17T12:44:58.820Z,97912.00
2022-08-17T12:47:26.371Z,97917.06
2022-08-17T12:50:28.495Z,97919.38
2022-08-17T12:52:59.732Z,97913.84
2022-08-17T12:55:29.334Z,97913.84
2022-08-17T12:57:59.793Z,97914.38
2022-08-17T13:00:42.905Z,97916.78
2022-08-17T13:03:23.097Z,97922.56
2022-08-17T13:05:52.772Z,97917.59
2022-08-17T13:08:39.138Z,97918.56
2022-08-17T13:11:18.548Z,97915.19
2022-08-17T13:13:54.750Z,97911.41
2022-08-17T13:16:24.886Z,97910.09
2022-08-17T13:19:05.830Z,97909.44
2022-08-17T13:21:33.620Z,97910.16
2022-08-17T13:24:04.338Z,97903.22
2022-08-17T13:26:35.303Z,97912.59
2022-08-17T13:29:06.302Z,97918.63
2022-08-17T13:31:51.811Z,97912.88
2022-08-17T13:34:26.728Z,97901.47
2022-08-17T13:37:32.519Z,97906.97
2022-08-17T13:40:21.860Z,97893.09
2022-08-17T13:42:53.595Z,97901.81
2022-08-17T13:45:35.368Z,97901.19
2022-08-17T13:48:11.834Z,97899.78
2022-08-17T13:50:52.350Z,97890.91
2022-08-17T13:53:25.324Z,97901.78
2022-08-17T13:55:55.349Z,97896.28
2022-08-17T13:58:26.067Z,97899.88
2022-08-17T14:00:53.122Z,97907.09
2022-08-17T14:03:20.548Z,97885.19
2022-08-17T14:05:50.083Z,97905.38
2022-08-17T14:08:19.884Z,97909.53
2022-08-17T14:10:57.492Z,97913.69
2022-08-17T14:13:24.189Z,97898.63
2022-08-17T14:15:55.686Z,97895.19
2022-08-17T14:18:35.665Z,97893.44
2022-08-17T14:21:11.137Z,97894.81
2022-08-17T14:23:37.837Z,97895.53
2022-08-17T14:26:04.861Z,97894.63
2022-08-17T14:28:32.152Z,97896.31
2022-08-17T14:31:00.374Z,97902.63
2022-08-17T14:33:28.847Z,97898.41
2022-08-17T14:35:55.943Z,97908.22
2022-08-17T14:38:22.651Z,97895.25
2022-08-17T14:40:49.411Z,97898.75
2022-08-17T14:43:16.026Z,97895.16
2022-08-17T14:45:43.641Z,97899.53
2022-08-17T14:48:11.059Z,97896.50
2022-08-17T14:50:41.583Z,97906.94
2022-08-17T14:53:11.050Z,97896.91
2022-08-17T14:55:40.578Z,97900.97
2022-08-17T14:58:08.804Z,97896.91
2022-08-17T15:00:35.507Z,97882.44
2022-08-17T15:03:03.117Z,97891.09
2022-08-17T15:05:33.874Z,97900.47
2022-08-17T15:08:01.752Z,97885.59
2022-08-17T15:10:29.529Z,97892.72
2022-08-17T15:12:57.856Z,97901.81
2022-08-17T15:15:25.166Z,97895.88
2022-08-17T15:17:51.814Z,97897.13
2022-08-17T15:20:21.393Z,97897.44
2022-08-17T15:22:49.823Z,97904.72
2022-08-17T15:25:19.009Z,97898.28
2022-08-17T15:27:45.750Z,97900.97
2022-08-17T15:30:13.329Z,97904.69
2022-08-17T15:32:45.769Z,97893.56
2022-08-17T15:35:26.870Z,97901.19
2022-08-17T15:37:55.674Z,97905.44
2022-08-17T15:40:22.248Z,97914.09
2022-08-17T15:42:50.401Z,97906.44
2022-08-17T15:45:22.585Z,97905.50
2022-08-17T15:47:49.391Z,97902.22
2022-08-17T15:50:16.185Z,97904.97
2022-08-17T15:52:44.918Z,97912.63
2022-08-17T15:55:13.723Z,97903.44
2022-08-17T15:57:40.796Z,97910.38
2022-08-17T16:00:08.858Z,97910.25
2022-08-17T16:03:44.961Z,97912.09
2022-08-17T16:05:27.217Z,97910.09
2022-08-17T16:07:55.237Z,97901.53
2022-08-17T16:10:22.901Z,97904.56
2022-08-17T16:13:01.940Z,97915.28
2022-08-17T16:15:31.181Z,97907.72
2022-08-17T16:17:57.763Z,97903.19
2022-08-17T16:20:24.350Z,97901.25
2022-08-17T16:22:51.220Z,97906.91
2022-08-17T16:25:47.153Z,97910.03
2022-08-17T16:28:10.881Z,97907.41
2022-08-17T16:30:38.293Z,97900.50
2022-08-17T16:33:05.878Z,97902.88
2022-08-17T16:35:32.578Z,97897.53
2022-08-17T16:37:59.223Z,97899.69
2022-08-17T16:40:28.161Z,97895.75
2022-08-17T16:42:55.971Z,97898.59
2022-08-17T16:45:28.182Z,97885.75
2022-08-17T16:48:01.534Z,97897.88
2022-08-17T16:50:28.205Z,97895.16
2022-08-17T16:53:17.900Z,97891.94
2022-08-17T16:55:49.423Z,97890.81
2022-08-17T16:58:16.119Z,97909.03
2022-08-17T17:00:44.254Z,97907.28
2022-08-17T17:03:20.012Z,97899.00
2022-08-17T17:06:07.211Z,97900.66
2022-08-17T17:08:46.687Z,97902.88
2022-08-17T17:11:21.610Z,97888.75
2022-08-17T17:13:57.886Z,97907.72
2022-08-17T17:16:36.222Z,97907.44
2022-08-17T17:19:35.204Z,97916.47
2022-08-17T17:22:16.527Z,97908.09
2022-08-17T17:25:12.125Z,97912.97
2022-08-17T17:27:42.887Z,97920.25
2022-08-17T17:30:15.133Z,97924.00
2022-08-17T17:32:41.719Z,97924.75
2022-08-17T17:35:11.485Z,97927.38
2022-08-17T17:37:40.432Z,97927.53
2022-08-17T17:40:14.521Z,97929.78
2022-08-17T17:42:43.919Z,97932.00
2022-08-17T17:45:20.372Z,97935.25
2022-08-17T17:47:47.698Z,97929.50
2022-08-17T17:50:17.466Z,97943.03
2022-08-17T17:52:51.252Z,97956.16
2022-08-17T17:55:45.689Z,97947.78
2022-08-17T17:58:22.767Z,97950.16
2022-08-17T18:01:08.427Z,97952.34
2022-08-17T18:03:53.904Z,97949.00
2022-08-17T18:06:35.514Z,97948.00
2022-08-17T18:09:19.416Z,97951.34
2022-08-17T18:11:53.943Z,97960.19
2022-08-17T18:14:50.947Z,97967.34
2022-08-17T18:17:18.330Z,97964.41
2022-08-17T18:19:45.306Z,97963.78
2022-08-17T18:22:19.458Z,97968.81
2022-08-17T18:24:49.547Z,97970.28
2022-08-17T18:27:40.791Z,97972.97
2022-08-17T18:30:13.152Z,97972.75
2022-08-17T18:32:42.490Z,97969.31
2022-08-17T18:35:09.131Z,97980.41
2022-08-17T18:37:42.712Z,97988.75
2022-08-17T18:40:19.575Z,97985.81
2022-08-17T18:43:08.390Z,97983.91
2022-08-17T18:45:48.168Z,97991.97
2022-08-17T18:48:37.942Z,97992.53
2022-08-17T18:51:40.952Z,98000.63
2022-08-17T18:54:22.374Z,98001.38
2022-08-17T18:56:51.807Z,98007.06
2022-08-17T18:59:27.544Z,98003.69
2022-08-17T19:02:02.031Z,98004.88
2022-08-17T19:04:39.719Z,97994.09
2022-08-17T19:07:11.025Z,98008.06
2022-08-17T19:09:47.638Z,98010.06
2022-08-17T19:12:33.286Z,97997.84
2022-08-17T19:15:00.951Z,98006.00
2022-08-17T19:17:35.438Z,98026.16
2022-08-17T19:20:20.054Z,98015.63
2022-08-17T19:23:11.369Z,98015.97
2022-08-17T19:25:46.545Z,98018.88
2022-08-17T19:28:22.562Z,98020.69
2022-08-17T19:30:54.913Z,98019.56
2022-08-17T19:33:21.794Z,98017.84
2022-08-17T19:35:57.507Z,98020.06
2022-08-17T19:38:42.462Z,98023.38
2022-08-17T19:41:38.572Z,98019.16
2022-08-17T19:44:14.995Z,98022.28
2022-08-17T19:46:55.940Z,98019.09
2022-08-17T19:49:33.461Z,98023.03
2022-08-17T19:52:32.602Z,98023.94
2022-08-17T19:55:09.719Z,98026.19
2022-08-17T19:58:02.720Z,98019.47
2022-08-17T20:00:33.711Z,98016.00
2022-08-17T20:03:08.057Z,98009.47
2022-08-17T20:06:10.945Z,98009.63
2022-08-17T20:08:39.518Z,98009.63
2022-08-17T20:11:10.709Z,98014.97
2022-08-17T20:13:43.550Z,98004.22
2022-08-17T20:16:11.247Z,98007.56
2022-08-17T20:18:48.808Z,98005.34
2022-08-17T20:21:41.990Z,98005.06
2022-08-17T20:24:21.866Z,98010.84
2022-08-17T20:26:58.183Z,97977.63
2022-08-17T20:29:40.233Z,98012.97
2022-08-17T20:32:18.824Z,98000.13
2022-08-17T20:34:47.874Z,97997.53
2022-08-17T20:37:14.551Z,97998.91
2022-08-17T20:39:45.948Z,97997.41
2022-08-17T20:42:15.335Z,97992.88
2022-08-17T20:44:43.274Z,97983.69
2022-08-17T20:47:35.689Z,97993.03
2022-08-17T20:50:07.158Z,97998.25
2022-08-17T20:52:56.312Z,97998.25
2022-08-17T20:55:35.438Z,97994.78
2022-08-17T20:58:24.693Z,97996.91
2022-08-17T21:00:57.397Z,97988.88
2022-08-17T21:03:24.148Z,97995.50
2022-08-17T21:06:17.604Z,97997.72
2022-08-17T21:08:45.868Z,97994.34
2022-08-17T21:11:57.080Z,97989.75
2022-08-17T21:14:32.800Z,97996.78
2022-08-17T21:17:18.502Z,97998.31
2022-08-17T21:20:22.030Z,97990.72
2022-08-17T21:22:58.569Z,97997.13
2022-08-17T21:25:43.195Z,98006.47
2022-08-17T21:28:12.844Z,98006.47
2022-08-17T21:30:39.409Z,98002.81
2022-08-17T21:33:27.144Z,98009.22
2022-08-17T21:35:59.554Z,98009.22
2022-08-17T21:38:38.034Z,98009.59
2022-08-17T21:41:04.882Z,98004.03
2022-08-17T21:43:37.489Z,98006.59
2022-08-17T21:46:10.808Z,98010.69
2022-08-17T21:48:43.071Z,98006.47
2022-08-17T21:51:14.969Z,98009.47
2022-08-17T21:53:51.433Z,98006.31
2022-08-17T21:56:24.898Z,98012.53
2022-08-17T21:58:59.583Z,98017.09
2022-08-17T22:01:30.173Z,98026.44
2022-08-17T22:03:58.680Z,98029.38
2022-08-17T22:06:52.647Z,98030.50
2022-08-17T22:09:31.937Z,98039.34
2022-08-17T22:12:12.372Z,98039.03
2022-08-17T22:14:53.272Z,98033.63
2022-08-17T22:17:30.189Z,98041.09
2022-08-17T22:20:14.480Z,98043.28
2022-08-17T22:23:08.747Z,98042.16
2022-08-17T22:25:38.330Z,98049.47
2022-08-17T22:28:08.152Z,98052.28
2022-08-17T22:30:58.749Z,98044.50
2022-08-17T22:33:42.375Z,98052.78
2022-08-17T22:36:24.656Z,98060.88
2022-08-17T22:38:54.796Z,98056.88
2022-08-17T22:41:35.847Z,98050.13
2022-08-17T22:44:14.084Z,98059.06
2022-08-17T22:46:56.157Z,98054.50
2022-08-17T22:49:34.170Z,98061.31
2022-08-17T22:52:32.152Z,98064.69
2022-08-17T22:55:34.887Z,98061.50
2022-08-17T22:58:28.022Z,98065.03
2022-08-17T23:00:55.065Z,98065.38
2022-08-17T23:03:27.993Z,98065.38
2022-08-17T23:06:11.870Z,98073.16
2022-08-17T23:08:59.537Z,98074.19
2022-08-17T23:11:42.872Z,98073.66
2022-08-17T23:14:19.089Z,98072.84
2022-08-17T23:16:46.297Z,98082.63
2022-08-17T23:19:16.469Z,98082.63
2022-08-17T23:21:46.668Z,98083.94
2022-08-17T23:24:23.482Z,98088.00
2022-08-17T23:26:50.661Z,98080.59
2022-08-17T23:29:17.297Z,98078.34
2022-08-17T23:31:43.919Z,98076.44
2022-08-17T23:34:13.331Z,98063.38
2022-08-17T23:36:40.331Z,98071.44
2022-08-17T23:39:07.574Z,98071.03
2022-08-17T23:41:38.987Z,98068.63
2022-08-17T23:44:06.997Z,98068.00
2022-08-17T23:46:34.634Z,98065.66
2022-08-17T23:49:01.473Z,98067.16
2022-08-17T23:51:31.643Z,98053.63
2022-08-17T23:54:07.967Z,98065.06
2022-08-17T23:56:41.927Z,98064.59
2022-08-17T23:59:08.521Z,98060.84
